Time;durP1;ratioP1;P1;durP2;ratioP2;P2;SDS_P1;SDS_P2;PMS_P1;PMS_P2;Temp;Humidity;BMP_temperature;BMP_pressure;BME280_temperature;BME280_humidity;BME280_pressure;Samples;Min_cycle;Max_cycle;Signal;HPM_P1;HPM_P2
2023/03/06 00:02:22;;;;;;;2.15;1.95;;;;;;;;;;5142599;27;20209;-61
2023/03/06 00:04:50;;;;;;;1.75;1.65;;;;;;;;;;5142905;27;20550;-58
2023/03/06 00:07:17;;;;;;;2.30;2.10;;;;;;;;;;5141941;27;20297;-59
2023/03/06 00:09:45;;;;;;;2.05;1.70;;;;;;;;;;5142780;27;20537;-60
2023/03/06 00:12:12;;;;;;;2.63;2.20;;;;;;;;;;5142453;27;20297;-58
2023/03/06 00:14:41;;;;;;;2.75;1.90;;;;;;;;;;5142252;27;20317;-58
2023/03/06 00:17:08;;;;;;;1.90;1.80;;;;;;;;;;5142236;27;20301;-60
2023/03/06 00:19:36;;;;;;;2.78;2.10;;;;;;;;;;5142337;27;20206;-60
2023/03/06 00:22:03;;;;;;;2.05;1.85;;;;;;;;;;5142403;27;20249;-58
2023/03/06 00:24:31;;;;;;;1.90;1.80;;;;;;;;;;5142517;27;20308;-60
2023/03/06 00:26:58;;;;;;;1.80;1.70;;;;;;;;;;5141809;27;20245;-58
2023/03/06 00:29:26;;;;;;;2.15;1.95;;;;;;;;;;5142518;27;20660;-59
2023/03/06 00:31:55;;;;;;;2.13;1.92;;;;;;;;;;5142031;27;20297;-59
2023/03/06 00:34:22;;;;;;;1.88;1.70;;;;;;;;;;5142276;27;20285;-59
2023/03/06 00:36:50;;;;;;;2.00;1.80;;;;;;;;;;5142161;27;20248;-59
2023/03/06 00:39:17;;;;;;;2.20;2.00;;;;;;;;;;5142104;27;20733;-59
2023/03/06 00:41:45;;;;;;;2.20;2.00;;;;;;;;;;5142005;27;20293;-59
2023/03/06 00:44:12;;;;;;;2.35;1.73;;;;;;;;;;5142256;27;20283;-59
2023/03/06 00:46:40;;;;;;;2.13;1.92;;;;;;;;;;5141746;27;20261;-59
2023/03/06 00:49:09;;;;;;;2.22;2.10;;;;;;;;;;5140589;27;20301;-59
2023/03/06 00:51:36;;;;;;;2.25;2.05;;;;;;;;;;5133964;27;20293;-59
2023/03/06 00:54:03;;;;;;;2.20;2.00;;;;;;;;;;5141199;27;20285;-60
2023/03/06 00:56:31;;;;;;;1.73;1.63;;;;;;;;;;5141172;27;20234;-60
2023/03/06 00:58:58;;;;;;;2.00;1.80;;;;;;;;;;5140447;27;20248;-59
2023/03/06 01:01:26;;;;;;;2.22;2.03;;;;;;;;;;5140832;27;20249;-59
2023/03/06 01:03:53;;;;;;;1.98;1.73;;;;;;;;;;5140505;27;20657;-59
2023/03/06 01:06:22;;;;;;;2.20;2.00;;;;;;;;;;5140883;27;20297;-59
2023/03/06 01:08:49;;;;;;;2.10;1.90;;;;;;;;;;5141411;27;20266;-59
2023/03/06 01:11:17;;;;;;;2.20;2.00;;;;;;;;;;5141053;27;20673;-59
2023/03/06 01:13:44;;;;;;;1.98;1.88;;;;;;;;;;5140749;27;20669;-59
2023/03/06 01:16:13;;;;;;;1.80;1.70;;;;;;;;;;5141049;27;20296;-59
2023/03/06 01:18:40;;;;;;;1.80;1.70;;;;;;;;;;5140998;27;20242;-59
2023/03/06 01:21:08;;;;;;;2.00;1.90;;;;;;;;;;5141231;27;20242;-59
2023/03/06 01:23:37;;;;;;;2.00;1.52;;;;;;;;;;5140852;27;20634;-59
2023/03/06 01:26:05;;;;;;;2.10;1.90;;;;;;;;;;5141194;27;20286;-59
2023/03/06 01:28:34;;;;;;;1.60;1.50;;;;;;;;;;5141032;27;20203;-59
2023/03/06 01:31:01;;;;;;;2.05;1.85;;;;;;;;;;5140770;27;20202;-59
2023/03/06 01:33:28;;;;;;;1.77;1.67;;;;;;;;;;5141001;27;20533;-59
2023/03/06 01:35:56;;;;;;;2.40;1.92;;;;;;;;;;5141134;27;20271;-59
2023/03/06 01:38:24;;;;;;;2.00;1.80;;;;;;;;;;5140690;27;20288;-59
2023/03/06 01:40:52;;;;;;;1.90;1.80;;;;;;;;;;5140602;27;20590;-59
2023/03/06 01:43:28;;;;;;;2.00;1.80;;;;;;;;;;5140739;27;20336;-59
2023/03/06 01:46:14;;;;;;;2.10;1.95;;;;;;;;;;5139994;27;20288;-59
2023/03/06 01:48:41;;;;;;;1.95;1.85;;;;;;;;;;5140694;27;20481;-59
2023/03/06 01:51:09;;;;;;;1.77;1.67;;;;;;;;;;5140579;27;20244;-59
2023/03/06 01:53:36;;;;;;;1.90;1.80;;;;;;;;;;5139749;27;20238;-59
2023/03/06 01:56:06;;;;;;;1.80;1.70;;;;;;;;;;5140391;27;20237;-59
2023/03/06 01:58:33;;;;;;;2.08;1.88;;;;;;;;;;5132295;27;20305;-59
2023/03/06 02:01:01;;;;;;;2.25;2.08;;;;;;;;;;5140317;27;20242;-59
2023/03/06 02:03:29;;;;;;;1.95;1.85;;;;;;;;;;5140411;27;20309;-58
2023/03/06 02:05:57;;;;;;;1.90;1.80;;;;;;;;;;5140190;27;20202;-59
2023/03/06 02:08:24;;;;;;;1.88;1.77;;;;;;;;;;5140070;27;20314;-59
2023/03/06 02:10:57;;;;;;;2.35;1.90;;;;;;;;;;5139782;27;20238;-59
2023/03/06 02:13:26;;;;;;;1.90;1.70;;;;;;;;;;5140131;27;20298;-59
2023/03/06 02:15:54;;;;;;;1.85;1.67;;;;;;;;;;5138956;27;20288;-59
2023/03/06 02:18:21;;;;;;;1.80;1.70;;;;;;;;;;5140184;27;20293;-59
2023/03/06 02:20:51;;;;;;;1.80;1.70;;;;;;;;;;5139958;27;20295;-59
2023/03/06 02:23:20;;;;;;;1.92;1.83;;;;;;;;;;5139888;27;20570;-59
2023/03/06 02:25:50;;;;;;;1.95;1.85;;;;;;;;;;5139872;27;20293;-59
2023/03/06 02:28:18;;;;;;;1.90;1.80;;;;;;;;;;5139813;27;20316;-59
2023/03/06 02:30:47;;;;;;;1.90;1.80;;;;;;;;;;5138972;27;20293;-59
2023/03/06 02:33:15;;;;;;;2.25;2.05;;;;;;;;;;5138010;27;20233;-59
2023/03/06 02:35:47;;;;;;;1.85;1.75;;;;;;;;;;5139374;27;20296;-58
2023/03/06 02:38:16;;;;;;;1.88;1.75;;;;;;;;;;5139682;27;20305;-58
2023/03/06 02:40:44;;;;;;;1.90;1.80;;;;;;;;;;5140160;27;20301;-59
2023/03/06 02:43:15;;;;;;;1.80;1.70;;;;;;;;;;5139228;27;20249;-59
2023/03/06 02:45:44;;;;;;;1.77;1.67;;;;;;;;;;5139507;27;20685;-59
2023/03/06 02:48:12;;;;;;;1.50;1.40;;;;;;;;;;5139458;27;20214;-59
2023/03/06 02:50:40;;;;;;;1.90;1.77;;;;;;;;;;5139150;27;20201;-59
2023/03/06 02:53:08;;;;;;;1.60;1.50;;;;;;;;;;5139790;27;20202;-58
2023/03/06 02:55:35;;;;;;;1.88;1.77;;;;;;;;;;5139022;27;20566;-58
2023/03/06 02:58:03;;;;;;;2.05;1.90;;;;;;;;;;5139118;27;20294;-59
2023/03/06 03:00:33;;;;;;;1.80;1.70;;;;;;;;;;5139277;27;20289;-58
2023/03/06 03:03:00;;;;;;;1.98;1.77;;;;;;;;;;5139111;27;20246;-58
2023/03/06 03:05:28;;;;;;;1.90;1.80;;;;;;;;;;5138792;27;20317;-59
2023/03/06 03:07:55;;;;;;;1.60;1.50;;;;;;;;;;5139042;27;20297;-59
2023/03/06 03:10:23;;;;;;;2.00;1.90;;;;;;;;;;5138605;27;20670;-59
2023/03/06 03:12:50;;;;;;;1.52;1.42;;;;;;;;;;5139202;27;20396;-59
2023/03/06 03:15:18;;;;;;;1.90;1.73;;;;;;;;;;5138737;27;20261;-59
2023/03/06 03:17:47;;;;;;;2.10;1.90;;;;;;;;;;5138750;27;20281;-60
2023/03/06 03:20:15;;;;;;;2.28;2.08;;;;;;;;;;5139011;27;20238;-58
2023/03/06 03:22:43;;;;;;;2.42;1.98;;;;;;;;;;5138766;27;20661;-59
2023/03/06 03:25:10;;;;;;;1.90;1.70;;;;;;;;;;5138906;27;20289;-59
2023/03/06 03:27:38;;;;;;;1.92;1.73;;;;;;;;;;5138515;27;20297;-59
2023/03/06 03:30:06;;;;;;;1.98;1.88;;;;;;;;;;5138806;27;20280;-59
2023/03/06 03:32:33;;;;;;;1.60;1.50;;;;;;;;;;5138479;27;20289;-59
2023/03/06 03:35:02;;;;;;;1.88;1.77;;;;;;;;;;5138548;27;20289;-59
2023/03/06 03:37:29;;;;;;;2.30;2.10;;;;;;;;;;5130369;27;20233;-59
2023/03/06 03:39:57;;;;;;;1.85;1.73;;;;;;;;;;5138939;27;20293;-59
2023/03/06 03:42:25;;;;;;;1.80;1.70;;;;;;;;;;5138719;27;20256;-60
2023/03/06 03:44:52;;;;;;;2.17;1.92;;;;;;;;;;5139228;27;20276;-58
2023/03/06 03:47:19;;;;;;;2.70;2.00;;;;;;;;;;5138609;27;20570;-58
2023/03/06 03:49:47;;;;;;;1.88;1.75;;;;;;;;;;5138795;27;20335;-59
2023/03/06 03:52:16;;;;;;;2.08;1.88;;;;;;;;;;5139047;27;20244;-58
2023/03/06 03:54:43;;;;;;;1.88;1.77;;;;;;;;;;5139157;27;20257;-58
2023/03/06 03:57:11;;;;;;;2.30;2.10;;;;;;;;;;5138617;27;20248;-59
2023/03/06 03:59:38;;;;;;;2.20;2.00;;;;;;;;;;5138527;27;20296;-59
2023/03/06 04:02:06;;;;;;;2.10;1.90;;;;;;;;;;5138580;27;20296;-59
2023/03/06 04:04:33;;;;;;;2.25;2.05;;;;;;;;;;5138349;27;20317;-59
2023/03/06 04:07:01;;;;;;;2.20;2.00;;;;;;;;;;5138621;28;20285;-59
2023/03/06 04:09:30;;;;;;;2.65;2.03;;;;;;;;;;5138395;27;20241;-59
2023/03/06 04:11:57;;;;;;;2.15;1.95;;;;;;;;;;5138651;27;20314;-59
2023/03/06 04:14:25;;;;;;;1.77;1.67;;;;;;;;;;5138307;28;20237;-58
2023/03/06 04:16:52;;;;;;;2.35;2.15;;;;;;;;;;5138257;28;20661;-59
2023/03/06 04:19:19;;;;;;;2.45;2.25;;;;;;;;;;5138280;28;20237;-59
2023/03/06 04:21:48;;;;;;;2.20;2.00;;;;;;;;;;5137930;27;20296;-59
2023/03/06 04:24:17;;;;;;;2.17;1.98;;;;;;;;;;5137650;27;20236;-59
2023/03/06 04:26:46;;;;;;;2.50;2.30;;;;;;;;;;5137440;27;20207;-59
2023/03/06 04:29:13;;;;;;;2.30;2.10;;;;;;;;;;5138149;27;20301;-59
2023/03/06 04:31:40;;;;;;;2.63;2.42;;;;;;;;;;5137792;27;20233;-59
2023/03/06 04:34:08;;;;;;;2.15;1.95;;;;;;;;;;5137945;27;20249;-59
2023/03/06 04:36:35;;;;;;;2.75;1.98;;;;;;;;;;5137713;27;20289;-60
2023/03/06 04:39:03;;;;;;;2.22;2.03;;;;;;;;;;5139653;27;20293;-59
2023/03/06 04:41:31;;;;;;;2.42;2.22;;;;;;;;;;5140880;27;20617;-59
2023/03/06 04:44:00;;;;;;;2.30;2.10;;;;;;;;;;5141509;27;20285;-59
2023/03/06 04:46:27;;;;;;;2.05;1.85;;;;;;;;;;5140875;27;20292;-59
2023/03/06 04:48:55;;;;;;;2.10;1.90;;;;;;;;;;5140780;27;20293;-59
2023/03/06 04:51:22;;;;;;;2.40;2.20;;;;;;;;;;5140976;27;20244;-59
2023/03/06 04:53:50;;;;;;;2.40;1.98;;;;;;;;;;5141464;27;20560;-59
2023/03/06 04:56:18;;;;;;;2.20;2.00;;;;;;;;;;5141013;27;20232;-59
2023/03/06 04:58:46;;;;;;;2.20;2.00;;;;;;;;;;5140547;27;20621;-58
2023/03/06 05:01:14;;;;;;;2.35;2.15;;;;;;;;;;5140857;27;20234;-60
2023/03/06 05:03:42;;;;;;;2.60;2.40;;;;;;;;;;5141858;27;20253;-59
2023/03/06 05:06:10;;;;;;;2.25;2.05;;;;;;;;;;5140997;27;20320;-59
2023/03/06 05:08:37;;;;;;;2.20;2.00;;;;;;;;;;5132618;27;20487;-59
2023/03/06 05:11:04;;;;;;;2.20;2.00;;;;;;;;;;5141100;27;20297;-59
2023/03/06 05:13:32;;;;;;;2.72;2.53;;;;;;;;;;5140449;27;20379;-59
2023/03/06 05:16:02;;;;;;;1.83;1.73;;;;;;;;;;5140253;27;20531;-59
2023/03/06 05:18:31;;;;;;;2.15;1.95;;;;;;;;;;5140289;27;20245;-59
2023/03/06 05:20:58;;;;;;;2.42;2.22;;;;;;;;;;5140689;27;20292;-59
2023/03/06 05:23:26;;;;;;;2.17;1.98;;;;;;;;;;5139936;27;20213;-59
2023/03/06 05:25:54;;;;;;;2.28;2.08;;;;;;;;;;5139140;27;20713;-59
2023/03/06 05:28:21;;;;;;;2.45;2.25;;;;;;;;;;5139874;27;20539;-59
2023/03/06 05:30:49;;;;;;;3.40;2.70;;;;;;;;;;5140256;27;20552;-59
2023/03/06 05:33:17;;;;;;;2.38;2.17;;;;;;;;;;5139274;27;20296;-59
2023/03/06 05:35:47;;;;;;;1.90;1.80;;;;;;;;;;5139395;27;20301;-60
2023/03/06 05:38:14;;;;;;;2.47;2.28;;;;;;;;;;5138720;27;20237;-59
2023/03/06 05:40:42;;;;;;;2.83;2.50;;;;;;;;;;5138868;27;20300;-59
2023/03/06 05:43:10;;;;;;;2.60;2.40;;;;;;;;;;5138672;27;20491;-59
2023/03/06 05:45:38;;;;;;;2.63;2.28;;;;;;;;;;5138590;27;20218;-59
2023/03/06 05:48:05;;;;;;;2.40;2.20;;;;;;;;;;5139011;27;20300;-59
2023/03/06 05:50:33;;;;;;;2.40;2.20;;;;;;;;;;5138340;27;20260;-60
2023/03/06 05:53:02;;;;;;;2.50;2.30;;;;;;;;;;5138223;27;20538;-59
2023/03/06 05:55:29;;;;;;;2.42;2.22;;;;;;;;;;5136691;27;20262;-59
2023/03/06 05:57:57;;;;;;;2.50;2.30;;;;;;;;;;5137044;27;20751;-59
2023/03/06 06:00:25;;;;;;;2.50;2.30;;;;;;;;;;5136542;27;20217;-59
2023/03/06 06:02:52;;;;;;;2.45;2.25;;;;;;;;;;5136339;27;20599;-60
2023/03/06 06:05:19;;;;;;;2.25;2.05;;;;;;;;;;5135122;27;20321;-59
2023/03/06 06:07:47;;;;;;;2.63;2.40;;;;;;;;;;5136021;27;20289;-59
2023/03/06 06:10:16;;;;;;;2.30;2.10;;;;;;;;;;5136136;27;20297;-59
2023/03/06 06:12:44;;;;;;;2.53;2.33;;;;;;;;;;5137169;27;20448;-59
2023/03/06 06:15:11;;;;;;;2.38;2.17;;;;;;;;;;5135107;27;20699;-60
2023/03/06 06:17:38;;;;;;;2.83;2.50;;;;;;;;;;5128097;27;20285;-59
2023/03/06 06:20:06;;;;;;;2.40;2.20;;;;;;;;;;5133764;27;20278;-58
2023/03/06 06:22:36;;;;;;;2.53;2.33;;;;;;;;;;5136572;27;20296;-59
2023/03/06 06:25:04;;;;;;;2.55;2.35;;;;;;;;;;5136204;27;20230;-59
2023/03/06 06:27:33;;;;;;;3.28;2.25;;;;;;;;;;5135736;27;20202;-59
2023/03/06 06:30:00;;;;;;;2.55;2.35;;;;;;;;;;5137428;27;20294;-59
2023/03/06 06:32:28;;;;;;;2.40;2.13;;;;;;;;;;5137307;27;20297;-59
2023/03/06 06:34:55;;;;;;;11.02;6.80;;;;;;;;;;5134961;27;20198;-59
2023/03/06 06:37:23;;;;;;;16.15;9.38;;;;;;;;;;5134846;27;20582;-59
2023/03/06 06:39:51;;;;;;;9.82;7.70;;;;;;;;;;5135212;27;20238;-60
2023/03/06 06:42:18;;;;;;;9.32;6.38;;;;;;;;;;5135308;27;20293;-58
2023/03/06 06:44:47;;;;;;;11.65;7.68;;;;;;;;;;5134375;27;20356;-58
2023/03/06 06:47:15;;;;;;;10.00;7.22;;;;;;;;;;5132007;27;20314;-58
2023/03/06 06:49:42;;;;;;;9.60;6.82;;;;;;;;;;5134082;27;20241;-58
2023/03/06 06:52:11;;;;;;;10.18;6.55;;;;;;;;;;5134679;27;20646;-60
2023/03/06 06:54:38;;;;;;;9.75;6.78;;;;;;;;;;5134843;27;20289;-59
2023/03/06 06:57:06;;;;;;;11.30;7.00;;;;;;;;;;5134016;27;20455;-60
2023/03/06 06:59:33;;;;;;;8.52;6.13;;;;;;;;;;5134577;27;20305;-58
2023/03/06 07:02:02;;;;;;;9.23;6.05;;;;;;;;;;5134500;27;20212;-59
2023/03/06 07:04:30;;;;;;;7.78;5.60;;;;;;;;;;5133235;27;20318;-59
2023/03/06 07:06:57;;;;;;;8.57;6.30;;;;;;;;;;5134159;27;20230;-59
2023/03/06 07:09:25;;;;;;;8.52;6.15;;;;;;;;;;5133359;27;20205;-59
2023/03/06 07:11:53;;;;;;;8.60;5.93;;;;;;;;;;5134869;27;20289;-59
2023/03/06 07:14:20;;;;;;;8.30;6.28;;;;;;;;;;5136126;27;20537;-59
2023/03/06 07:16:48;;;;;;;8.98;5.50;;;;;;;;;;5135695;27;20199;-59
2023/03/06 07:19:17;;;;;;;7.22;5.25;;;;;;;;;;5135838;27;20230;-58
2023/03/06 07:21:44;;;;;;;7.18;5.60;;;;;;;;;;5135522;27;20249;-59
2023/03/06 07:24:12;;;;;;;7.05;5.30;;;;;;;;;;5134268;27;20229;-59
2023/03/06 07:26:39;;;;;;;7.45;5.50;;;;;;;;;;5135597;27;20297;-59
2023/03/06 07:29:07;;;;;;;7.20;5.78;;;;;;;;;;5135004;27;20293;-59
2023/03/06 07:31:34;;;;;;;7.60;5.30;;;;;;;;;;5135010;27;20283;-60
2023/03/06 07:34:02;;;;;;;6.65;5.03;;;;;;;;;;5136325;27;20540;-59
2023/03/06 07:36:30;;;;;;;7.13;4.97;;;;;;;;;;5136075;27;20289;-59
2023/03/06 07:38:58;;;;;;;6.55;4.65;;;;;;;;;;5136513;27;20535;-59
2023/03/06 07:41:25;;;;;;;6.20;4.50;;;;;;;;;;5135782;27;20292;-59
2023/03/06 07:43:54;;;;;;;6.05;4.95;;;;;;;;;;5121765;27;20242;-59
2023/03/06 07:46:21;;;;;;;7.03;5.00;;;;;;;;;;5114869;28;20215;-59
2023/03/06 07:48:49;;;;;;;5.90;4.88;;;;;;;;;;5115123;28;20293;-58
2023/03/06 07:51:18;;;;;;;9.93;4.65;;;;;;;;;;5115167;28;20230;-61
2023/03/06 07:53:47;;;;;;;4.95;4.35;;;;;;;;;;5114311;28;20634;-59
2023/03/06 07:56:14;;;;;;;5.70;4.45;;;;;;;;;;5114343;28;20302;-59
2023/03/06 07:58:43;;;;;;;6.47;4.72;;;;;;;;;;5114594;28;20598;-59
2023/03/06 08:01:11;;;;;;;4.97;3.95;;;;;;;;;;5115576;28;20242;-59
2023/03/06 08:03:39;;;;;;;5.63;4.50;;;;;;;;;;5115438;28;20319;-59
2023/03/06 08:06:07;;;;;;;5.85;4.32;;;;;;;;;;5115643;28;20329;-58
2023/03/06 08:08:35;;;;;;;5.07;3.92;;;;;;;;;;5113934;28;20282;-59
2023/03/06 08:11:04;;;;;;;5.15;3.92;;;;;;;;;;5115898;28;20298;-58
2023/03/06 08:13:31;;;;;;;4.50;4.00;;;;;;;;;;5115974;28;20298;-58
2023/03/06 08:15:59;;;;;;;4.93;4.18;;;;;;;;;;5118916;28;20245;-58
2023/03/06 08:18:27;;;;;;;4.63;3.80;;;;;;;;;;5119605;28;20210;-59
2023/03/06 08:21:02;;;;;;;5.13;3.72;;;;;;;;;;5118933;28;20213;-61
2023/03/06 08:23:29;;;;;;;4.50;3.67;;;;;;;;;;5117287;28;20206;-59
2023/03/06 08:25:57;;;;;;;3.83;3.25;;;;;;;;;;5118097;28;20318;-59
2023/03/06 08:28:27;;;;;;;4.85;3.40;;;;;;;;;;5118502;28;20597;-59
2023/03/06 08:30:54;;;;;;;4.10;3.70;;;;;;;;;;5118549;28;20249;-59
2023/03/06 08:33:22;;;;;;;4.15;3.70;;;;;;;;;;5117572;28;20230;-59
2023/03/06 08:35:50;;;;;;;3.90;3.30;;;;;;;;;;5117588;28;20765;-59
2023/03/06 08:38:17;;;;;;;4.30;3.50;;;;;;;;;;5117672;28;20199;-59
2023/03/06 08:40:44;;;;;;;4.53;3.28;;;;;;;;;;5118498;28;20207;-59
2023/03/06 08:43:12;;;;;;;3.65;3.13;;;;;;;;;;5118449;28;20203;-59
2023/03/06 08:45:41;;;;;;;4.68;3.55;;;;;;;;;;5118136;28;20305;-59
2023/03/06 08:48:08;;;;;;;3.38;3.08;;;;;;;;;;5118591;28;20214;-59
2023/03/06 08:50:36;;;;;;;3.85;3.17;;;;;;;;;;5118422;28;20305;-59
2023/03/06 08:53:03;;;;;;;3.40;3.00;;;;;;;;;;5117680;28;20294;-60
2023/03/06 08:55:31;;;;;;;3.72;3.10;;;;;;;;;;5117291;28;20203;-59
2023/03/06 08:57:58;;;;;;;3.60;3.00;;;;;;;;;;5117441;28;20470;-59
2023/03/06 09:00:26;;;;;;;3.58;2.95;;;;;;;;;;5118304;28;20446;-59
2023/03/06 09:02:54;;;;;;;2.92;2.67;;;;;;;;;;5118234;28;20534;-59
2023/03/06 09:05:22;;;;;;;3.70;3.30;;;;;;;;;;5117375;28;20297;-59
2023/03/06 09:07:49;;;;;;;2.92;2.72;;;;;;;;;;5118346;28;20285;-59
2023/03/06 09:10:18;;;;;;;2.80;2.55;;;;;;;;;;5117906;28;20203;-59
2023/03/06 09:12:46;;;;;;;2.90;2.70;;;;;;;;;;5117545;28;20199;-60
2023/03/06 09:15:14;;;;;;;3.60;3.30;;;;;;;;;;5117556;28;20322;-59
2023/03/06 09:17:41;;;;;;;3.40;2.95;;;;;;;;;;5117344;28;20195;-58
2023/03/06 09:20:11;;;;;;;2.83;2.40;;;;;;;;;;5118207;28;20579;-59
2023/03/06 09:22:41;;;;;;;3.17;2.88;;;;;;;;;;5117579;28;20235;-59
2023/03/06 09:25:09;;;;;;;3.40;3.10;;;;;;;;;;5117760;28;20203;-59
2023/03/06 09:27:37;;;;;;;3.28;2.97;;;;;;;;;;5117916;28;20223;-59
2023/03/06 09:30:04;;;;;;;3.13;2.83;;;;;;;;;;5118676;28;20203;-59
2023/03/06 09:32:32;;;;;;;3.28;2.97;;;;;;;;;;5117349;28;20239;-58
2023/03/06 09:34:59;;;;;;;2.92;2.63;;;;;;;;;;5116713;28;20242;-58
2023/03/06 09:37:28;;;;;;;3.63;3.15;;;;;;;;;;5116478;28;20548;-58
2023/03/06 09:39:56;;;;;;;3.42;3.13;;;;;;;;;;5116477;27;20207;-58
2023/03/06 09:42:24;;;;;;;3.30;3.00;;;;;;;;;;5116408;28;20287;-58
2023/03/06 09:44:53;;;;;;;3.00;2.70;;;;;;;;;;5117312;28;20322;-60
2023/03/06 09:47:38;;;;;;;3.13;2.83;;;;;;;;;;5116480;28;20237;-58
2023/03/06 09:50:12;;;;;;;3.20;2.90;;;;;;;;;;5118112;28;20202;-59
2023/03/06 09:52:46;;;;;;;3.10;2.80;;;;;;;;;;5118199;28;20286;-59
2023/03/06 09:55:16;;;;;;;3.00;2.70;;;;;;;;;;5118380;28;20575;-59
2023/03/06 09:57:45;;;;;;;3.17;2.88;;;;;;;;;;5118111;28;20201;-59
2023/03/06 10:00:14;;;;;;;2.70;2.50;;;;;;;;;;5117773;28;20302;-58
2023/03/06 10:02:43;;;;;;;3.20;2.90;;;;;;;;;;5117909;28;20245;-59
2023/03/06 10:05:13;;;;;;;2.78;2.50;;;;;;;;;;5126759;27;20212;-58
2023/03/06 10:07:46;;;;;;;3.40;2.90;;;;;;;;;;5157371;27;20287;-59
2023/03/06 10:10:19;;;;;;;3.22;2.92;;;;;;;;;;5157588;27;20669;-58
2023/03/06 10:12:49;;;;;;;3.15;2.85;;;;;;;;;;5158032;27;20209;-59
2023/03/06 10:15:18;;;;;;;3.30;3.00;;;;;;;;;;5158250;27;20252;-60
2023/03/06 10:17:46;;;;;;;3.15;2.63;;;;;;;;;;5158332;27;20201;-58
2023/03/06 10:20:18;;;;;;;3.67;2.47;;;;;;;;;;5156508;27;20244;-61
2023/03/06 10:22:51;;;;;;;3.03;2.42;;;;;;;;;;5158296;27;20213;-58
2023/03/06 10:25:23;;;;;;;2.85;2.55;;;;;;;;;;5157666;27;20205;-58
2023/03/06 10:27:51;;;;;;;3.10;2.83;;;;;;;;;;5156695;27;20312;-59
2023/03/06 10:30:26;;;;;;;2.50;2.30;;;;;;;;;;5158556;27;20270;-59
2023/03/06 10:32:57;;;;;;;2.65;2.45;;;;;;;;;;5158173;27;20212;-59
2023/03/06 10:35:28;;;;;;;2.75;2.55;;;;;;;;;;5157240;27;20205;-59
2023/03/06 10:38:02;;;;;;;2.33;2.13;;;;;;;;;;5156868;27;20198;-59
2023/03/06 10:40:35;;;;;;;2.72;2.53;;;;;;;;;;5157824;27;20288;-59
2023/03/06 10:43:03;;;;;;;2.50;2.30;;;;;;;;;;5157722;27;20388;-59
2023/03/06 10:45:30;;;;;;;2.42;2.22;;;;;;;;;;5157208;27;20210;-61
2023/03/06 10:48:10;;;;;;;2.70;2.50;;;;;;;;;;5156512;27;20249;-59
2023/03/06 10:50:38;;;;;;;3.88;2.55;;;;;;;;;;5155807;27;20212;-59
2023/03/06 10:53:11;;;;;;;5.60;2.80;;;;;;;;;;5155121;27;20232;-59
2023/03/06 10:55:39;;;;;;;5.25;2.63;;;;;;;;;;5155826;27;20704;-59
2023/03/06 10:58:20;;;;;;;5.97;2.50;;;;;;;;;;5156818;27;20484;-59
2023/03/06 11:00:47;;;;;;;5.82;2.65;;;;;;;;;;5156775;27;20212;-60
2023/03/06 11:03:19;;;;;;;3.17;2.35;;;;;;;;;;5156138;27;20233;-59
2023/03/06 11:05:57;;;;;;;3.15;2.70;;;;;;;;;;5155960;27;20662;-59
2023/03/06 11:08:28;;;;;;;3.95;2.30;;;;;;;;;;5156116;27;20205;-60
2023/03/06 11:10:57;;;;;;;4.10;2.47;;;;;;;;;;5157153;27;20265;-60
2023/03/06 11:13:27;;;;;;;5.75;2.70;;;;;;;;;;5154684;27;20360;-60
2023/03/06 11:16:00;;;;;;;2.90;2.50;;;;;;;;;;5155556;27;20306;-60
2023/03/06 11:18:33;;;;;;;6.15;2.35;;;;;;;;;;5155629;27;20202;-60
2023/03/06 11:21:03;;;;;;;4.10;2.55;;;;;;;;;;5155268;27;20676;-60
2023/03/06 11:23:38;;;;;;;3.33;2.58;;;;;;;;;;5145445;27;20208;-60
2023/03/06 11:26:13;;;;;;;2.90;2.20;;;;;;;;;;5154292;27;20209;-59
2023/03/06 11:28:42;;;;;;;2.60;2.25;;;;;;;;;;5154627;27;20192;-59
2023/03/06 11:31:12;;;;;;;3.45;2.40;;;;;;;;;;5154503;27;20426;-59
2023/03/06 11:33:44;;;;;;;2.83;2.40;;;;;;;;;;5154961;27;20201;-59
2023/03/06 11:36:14;;;;;;;3.25;2.40;;;;;;;;;;5154093;27;20223;-59
2023/03/06 11:38:44;;;;;;;4.55;2.80;;;;;;;;;;5154268;27;20203;-59
2023/03/06 11:41:16;;;;;;;2.50;2.30;;;;;;;;;;5152778;27;20201;-59
2023/03/06 11:43:50;;;;;;;5.05;2.38;;;;;;;;;;5153150;27;20206;-59
2023/03/06 11:46:21;;;;;;;2.58;2.13;;;;;;;;;;5155000;27;20212;-59
2023/03/06 11:48:52;;;;;;;3.47;2.20;;;;;;;;;;5158256;27;20372;-59
2023/03/06 11:51:24;;;;;;;2.50;2.08;;;;;;;;;;5157345;27;20304;-59
2023/03/06 11:53:54;;;;;;;2.83;2.45;;;;;;;;;;5158421;27;20613;-59
2023/03/06 11:56:27;;;;;;;2.50;2.00;;;;;;;;;;5157571;27;20223;-59
2023/03/06 11:59:15;;;;;;;2.25;2.10;;;;;;;;;;5158905;27;20262;-59
2023/03/06 12:01:47;;;;;;;4.93;2.45;;;;;;;;;;5152547;27;20319;-59
2023/03/06 12:04:32;;;;;;;3.95;2.30;;;;;;;;;;5159274;27;20201;-60
2023/03/06 12:07:03;;;;;;;3.28;2.20;;;;;;;;;;5158776;27;20221;-59
2023/03/06 12:09:39;;;;;;;3.45;2.22;;;;;;;;;;5157746;27;20201;-59
2023/03/06 12:12:14;;;;;;;2.08;1.92;;;;;;;;;;5159506;27;20664;-59
2023/03/06 12:14:49;;;;;;;3.42;2.35;;;;;;;;;;5158081;27;20532;-59
2023/03/06 12:17:23;;;;;;;2.30;2.10;;;;;;;;;;5158614;27;20288;-59
2023/03/06 12:20:09;;;;;;;2.50;2.30;;;;;;;;;;5159195;27;20451;-59
2023/03/06 12:22:44;;;;;;;2.80;2.20;;;;;;;;;;5159193;27;20294;-59
2023/03/06 12:25:30;;;;;;;2.20;2.00;;;;;;;;;;5159116;27;20299;-59
2023/03/06 12:28:02;;;;;;;2.20;2.00;;;;;;;;;;5158023;27;20236;-59
2023/03/06 12:30:44;;;;;;;3.10;2.00;;;;;;;;;;5158612;27;20550;-59
2023/03/06 12:33:18;;;;;;;2.05;1.85;;;;;;;;;;5154380;27;20204;-60
2023/03/06 12:35:53;;;;;;;2.40;2.20;;;;;;;;;;5157648;27;20599;-59
2023/03/06 12:38:33;;;;;;;2.17;1.90;;;;;;;;;;5157779;27;20562;-59
2023/03/06 12:41:08;;;;;;;2.75;2.30;;;;;;;;;;5158355;27;20193;-59
2023/03/06 12:43:51;;;;;;;2.40;2.20;;;;;;;;;;5155707;27;20201;-59
2023/03/06 12:46:21;;;;;;;2.53;2.28;;;;;;;;;;5156374;27;20311;-61
2023/03/06 12:48:53;;;;;;;2.25;2.05;;;;;;;;;;5157571;27;20193;-59
2023/03/06 12:51:21;;;;;;;2.33;2.13;;;;;;;;;;5157785;27;20210;-59
2023/03/06 12:53:49;;;;;;;2.47;2.28;;;;;;;;;;5157679;27;20204;-59
2023/03/06 12:56:19;;;;;;;2.65;2.45;;;;;;;;;;5157265;27;20284;-59
2023/03/06 12:58:51;;;;;;;2.42;2.22;;;;;;;;;;5157958;27;20447;-59
2023/03/06 13:01:33;;;;;;;2.45;2.10;;;;;;;;;;5157941;27;20202;-59
2023/03/06 13:04:05;;;;;;;2.92;2.70;;;;;;;;;;5154795;27;20288;-59
2023/03/06 13:06:41;;;;;;;2.70;2.50;;;;;;;;;;5157607;27;20338;-59
2023/03/06 13:09:14;;;;;;;2.90;2.70;;;;;;;;;;5157442;27;20288;-60
2023/03/06 13:12:00;;;;;;;2.55;2.35;;;;;;;;;;5156152;27;20204;-59
2023/03/06 13:14:31;;;;;;;2.33;2.13;;;;;;;;;;5156241;27;20836;-59
2023/03/06 13:17:25;;;;;;;3.03;2.60;;;;;;;;;;5155647;27;20200;-59
2023/03/06 13:20:20;;;;;;;2.92;2.63;;;;;;;;;;5155987;27;20542;-59
2023/03/06 13:22:48;;;;;;;2.90;2.70;;;;;;;;;;5157584;27;20495;-61
2023/03/06 13:25:35;;;;;;;3.10;2.83;;;;;;;;;;5158488;27;20849;-61
2023/03/06 13:28:04;;;;;;;2.90;2.70;;;;;;;;;;5158082;27;20401;-59
2023/03/06 13:33:41;;;;;;;2.60;2.40;;;;;;;;;;5131251;27;20530;-59
2023/03/06 13:36:23;;;;;;;2.70;2.50;;;;;;;;;;5118331;27;20507;-60
2023/03/06 13:39:05;;;;;;;2.58;2.38;;;;;;;;;;5130398;27;20198;-59
2023/03/06 13:41:43;;;;;;;2.83;2.63;;;;;;;;;;5128006;27;20378;-59
2023/03/06 13:44:29;;;;;;;2.85;2.65;;;;;;;;;;5130929;27;20327;-59
2023/03/06 13:46:58;;;;;;;2.67;2.42;;;;;;;;;;5131878;27;20204;-61
2023/03/06 13:49:26;;;;;;;2.80;2.60;;;;;;;;;;5130977;27;20195;-58
2023/03/06 13:52:03;;;;;;;2.90;2.70;;;;;;;;;;5130259;27;20337;-59
2023/03/06 13:54:37;;;;;;;2.67;2.47;;;;;;;;;;5131754;27;20305;-59
2023/03/06 13:57:10;;;;;;;2.95;2.60;;;;;;;;;;5131442;27;20237;-58
2023/03/06 13:59:53;;;;;;;2.88;2.67;;;;;;;;;;5132203;27;20289;-60
2023/03/06 14:02:34;;;;;;;3.20;2.60;;;;;;;;;;5131174;27;20281;-59
2023/03/06 14:05:03;;;;;;;3.00;2.80;;;;;;;;;;5130651;27;20203;-61
2023/03/06 14:07:33;;;;;;;4.28;2.85;;;;;;;;;;5120337;28;20234;-61
2023/03/06 14:10:04;;;;;;;4.70;2.88;;;;;;;;;;5111528;28;20203;-61
2023/03/06 14:12:34;;;;;;;5.28;2.63;;;;;;;;;;5112012;28;20222;-62
2023/03/06 14:15:04;;;;;;;2.70;2.33;;;;;;;;;;5111421;28;20223;-62
2023/03/06 14:17:32;;;;;;;3.00;2.53;;;;;;;;;;5111023;28;20401;-61
2023/03/06 14:20:01;;;;;;;3.08;2.58;;;;;;;;;;5111613;28;20245;-61
2023/03/06 14:22:29;;;;;;;2.83;2.63;;;;;;;;;;5119630;27;20194;-62
2023/03/06 14:25:03;;;;;;;3.00;2.50;;;;;;;;;;5128262;28;20208;-62
2023/03/06 14:27:44;;;;;;;2.70;2.50;;;;;;;;;;5132095;27;20202;-61
2023/03/06 14:30:13;;;;;;;2.95;2.47;;;;;;;;;;5131368;27;20264;-61
2023/03/06 14:32:41;;;;;;;2.63;2.42;;;;;;;;;;5131499;27;20664;-61
2023/03/06 14:35:19;;;;;;;3.55;2.83;;;;;;;;;;5130932;27;20207;-62
2023/03/06 14:37:48;;;;;;;3.00;2.80;;;;;;;;;;5131508;27;20238;-61
2023/03/06 14:40:21;;;;;;;2.45;2.25;;;;;;;;;;5131800;27;20208;-61
2023/03/06 14:42:49;;;;;;;2.85;2.65;;;;;;;;;;5129832;27;20263;-61
2023/03/06 14:45:17;;;;;;;2.67;2.47;;;;;;;;;;5117410;28;20209;-60
2023/03/06 14:47:49;;;;;;;2.90;2.70;;;;;;;;;;5117927;28;20578;-61
2023/03/06 14:50:24;;;;;;;2.40;2.20;;;;;;;;;;5117780;28;20241;-61
2023/03/06 14:52:53;;;;;;;2.80;2.40;;;;;;;;;;5117624;28;20230;-61
2023/03/06 14:55:23;;;;;;;2.53;2.33;;;;;;;;;;5116973;28;20195;-61
2023/03/06 14:57:53;;;;;;;2.40;2.20;;;;;;;;;;5115917;28;20485;-61
2023/03/06 15:00:22;;;;;;;3.38;2.17;;;;;;;;;;5117605;27;20211;-62
2023/03/06 15:02:51;;;;;;;2.67;2.30;;;;;;;;;;5117906;28;20203;-61